Time;durP1;ratioP1;P1;durP2;ratioP2;P2;SDS_P1;SDS_P2;PMS_P1;PMS_P2;Temp;Humidity;BMP_temperature;BMP_pressure;BME280_temperature;BME280_humidity;BME280_pressure;Samples;Min_cycle;Max_cycle;Signal;HPM_P1;HPM_P2
2022/03/28 00:02:19;;;;;;;18.67;8.20;;;;;;;;;;4995784;28;20269;-69
2022/03/28 00:04:44;;;;;;;16.27;8.50;;;;;;;;;;4992419;28;20266;-68
2022/03/28 00:07:09;;;;;;;19.07;8.60;;;;;;;;;;4992447;28;20018;-69
2022/03/28 00:09:34;;;;;;;19.07;8.50;;;;;;;;;;4992230;28;20729;-68
2022/03/28 00:12:00;;;;;;;17.03;8.87;;;;;;;;;;4992508;28;20265;-68
2022/03/28 00:14:25;;;;;;;22.42;8.88;;;;;;;;;;4991650;28;20269;-68
2022/03/28 00:16:50;;;;;;;21.20;9.52;;;;;;;;;;4992326;28;20037;-69
2022/03/28 00:19:15;;;;;;;19.58;8.48;;;;;;;;;;4991864;28;20026;-68
2022/03/28 00:21:41;;;;;;;17.97;8.97;;;;;;;;;;4992215;28;20027;-69
2022/03/28 00:24:06;;;;;;;20.52;9.30;;;;;;;;;;4974626;28;20364;-69
2022/03/28 00:26:31;;;;;;;17.35;8.68;;;;;;;;;;4990363;28;20026;-68
2022/03/28 00:28:57;;;;;;;19.10;8.57;;;;;;;;;;4990546;28;20105;-69
2022/03/28 00:31:22;;;;;;;23.98;8.77;;;;;;;;;;4995380;28;20049;-69
2022/03/28 00:33:47;;;;;;;18.55;9.00;;;;;;;;;;4980847;28;20022;-68
2022/03/28 00:36:13;;;;;;;22.05;8.95;;;;;;;;;;5000415;28;20021;-68
2022/03/28 00:38:38;;;;;;;19.35;8.52;;;;;;;;;;5002869;28;20084;-68
2022/03/28 00:41:04;;;;;;;19.02;9.10;;;;;;;;;;4997218;28;20029;-68
2022/03/28 00:43:29;;;;;;;15.55;7.97;;;;;;;;;;5002067;28;20060;-69
2022/03/28 00:45:55;;;;;;;19.05;9.00;;;;;;;;;;4999012;28;20050;-68
2022/03/28 00:48:20;;;;;;;20.23;9.48;;;;;;;;;;4998598;28;20010;-69
2022/03/28 00:50:45;;;;;;;19.63;9.45;;;;;;;;;;4997086;28;20018;-69
2022/03/28 00:53:12;;;;;;;17.17;8.45;;;;;;;;;;4998483;28;20533;-69
2022/03/28 00:55:37;;;;;;;21.98;9.50;;;;;;;;;;4992877;28;20077;-69
2022/03/28 00:58:03;;;;;;;17.75;7.97;;;;;;;;;;4999488;28;20033;-67
2022/03/28 01:00:28;;;;;;;20.08;8.40;;;;;;;;;;5000757;28;20387;-69
2022/03/28 01:02:53;;;;;;;22.80;7.80;;;;;;;;;;4994753;28;20033;-69
2022/03/28 01:05:19;;;;;;;18.30;8.45;;;;;;;;;;4998543;28;20042;-69
2022/03/28 01:07:46;;;;;;;19.23;9.43;;;;;;;;;;4997964;28;20120;-69
2022/03/28 01:10:11;;;;;;;19.77;8.82;;;;;;;;;;4988458;28;20023;-69
2022/03/28 01:12:37;;;;;;;19.08;8.35;;;;;;;;;;4990783;28;20018;-69
2022/03/28 01:15:03;;;;;;;21.38;9.18;;;;;;;;;;4990183;28;20092;-69
2022/03/28 01:20:12;;;;;;;19.90;8.40;;;;;;;;;;4995286;28;20041;-67
2022/03/28 01:22:37;;;;;;;18.95;9.18;;;;;;;;;;4996092;28;20022;-69
2022/03/28 01:25:06;;;;;;;22.48;9.45;;;;;;;;;;4997901;28;20025;-68
2022/03/28 01:27:32;;;;;;;24.40;9.50;;;;;;;;;;4995900;28;20030;-69
2022/03/28 01:29:58;;;;;;;23.73;8.95;;;;;;;;;;4985165;28;20207;-69
2022/03/28 01:32:23;;;;;;;20.20;8.50;;;;;;;;;;4996174;28;20380;-68
2022/03/28 01:34:48;;;;;;;24.35;9.95;;;;;;;;;;4993778;28;20108;-69
2022/03/28 01:37:13;;;;;;;23.00;9.63;;;;;;;;;;4999602;28;20018;-68
2022/03/28 01:39:39;;;;;;;20.27;9.88;;;;;;;;;;4994917;28;20018;-69
2022/03/28 01:42:04;;;;;;;24.13;9.80;;;;;;;;;;4997614;28;20057;-69
2022/03/28 01:44:29;;;;;;;25.00;9.82;;;;;;;;;;4993186;28;20037;-69
2022/03/28 01:46:54;;;;;;;22.05;11.02;;;;;;;;;;4995282;28;20034;-69
2022/03/28 01:49:20;;;;;;;22.90;10.02;;;;;;;;;;4987670;28;20025;-69
2022/03/28 01:51:46;;;;;;;24.60;10.40;;;;;;;;;;4990538;28;20030;-68
2022/03/28 01:54:11;;;;;;;23.65;10.00;;;;;;;;;;4976008;28;20478;-69
2022/03/28 01:56:37;;;;;;;24.30;9.05;;;;;;;;;;4977671;28;20022;-69
2022/03/28 01:59:03;;;;;;;20.00;9.50;;;;;;;;;;5000135;28;20273;-69
2022/03/28 02:01:28;;;;;;;22.23;10.15;;;;;;;;;;4989933;28;20030;-69
2022/03/28 02:03:53;;;;;;;32.25;11.20;;;;;;;;;;4991999;28;20032;-69
2022/03/28 02:06:19;;;;;;;22.60;12.07;;;;;;;;;;4999420;28;20085;-69
2022/03/28 02:08:44;;;;;;;24.35;10.90;;;;;;;;;;4992868;28;20320;-69
2022/03/28 02:11:09;;;;;;;22.90;9.73;;;;;;;;;;4998376;28;20089;-68
2022/03/28 02:13:35;;;;;;;21.38;10.07;;;;;;;;;;4997067;28;20302;-69
2022/03/28 02:16:00;;;;;;;23.30;10.32;;;;;;;;;;4996511;28;20022;-68
2022/03/28 02:18:26;;;;;;;25.30;11.50;;;;;;;;;;4995569;28;20023;-69
2022/03/28 02:20:51;;;;;;;20.38;9.80;;;;;;;;;;4997467;28;20170;-69
2022/03/28 02:23:16;;;;;;;28.48;11.40;;;;;;;;;;4993342;28;20022;-69
2022/03/28 02:25:42;;;;;;;23.70;11.10;;;;;;;;;;4991962;28;20035;-68
2022/03/28 02:28:07;;;;;;;26.23;10.63;;;;;;;;;;5002444;28;20372;-69
2022/03/28 02:30:33;;;;;;;24.92;10.55;;;;;;;;;;4996876;28;20010;-68
2022/03/28 02:32:58;;;;;;;28.08;11.93;;;;;;;;;;4993550;28;20033;-68
2022/03/28 02:35:24;;;;;;;22.65;11.27;;;;;;;;;;4995692;28;20140;-69
2022/03/28 02:37:49;;;;;;;24.95;10.63;;;;;;;;;;4998647;28;20060;-69
2022/03/28 02:40:15;;;;;;;28.63;11.02;;;;;;;;;;5000401;28;20111;-69
2022/03/28 02:42:40;;;;;;;26.42;10.80;;;;;;;;;;5002661;28;20030;-69
2022/03/28 02:45:05;;;;;;;31.27;11.48;;;;;;;;;;5002284;28;20022;-69
2022/03/28 02:47:31;;;;;;;19.58;10.32;;;;;;;;;;4980005;28;20405;-68
2022/03/28 02:49:56;;;;;;;24.77;10.38;;;;;;;;;;4998942;28;20014;-69
2022/03/28 02:52:22;;;;;;;24.55;10.25;;;;;;;;;;4998198;28;20367;-69
2022/03/28 02:54:47;;;;;;;23.90;10.60;;;;;;;;;;4998569;28;20108;-68
2022/03/28 02:57:12;;;;;;;23.33;10.35;;;;;;;;;;4995092;28;20046;-69
2022/03/28 02:59:38;;;;;;;22.48;10.35;;;;;;;;;;4999319;28;20101;-68
2022/03/28 03:02:03;;;;;;;22.55;10.55;;;;;;;;;;4995870;28;20021;-68
2022/03/28 03:04:29;;;;;;;22.42;10.48;;;;;;;;;;5004925;28;20022;-69
2022/03/28 03:06:54;;;;;;;25.02;10.23;;;;;;;;;;5000307;28;20270;-68
2022/03/28 03:09:20;;;;;;;25.73;10.07;;;;;;;;;;5003287;28;20025;-68
2022/03/28 03:11:45;;;;;;;24.35;10.85;;;;;;;;;;5000259;28;20030;-69
2022/03/28 03:14:10;;;;;;;28.90;11.30;;;;;;;;;;5004449;28;20467;-69
2022/03/28 03:16:35;;;;;;;26.20;10.45;;;;;;;;;;5002365;28;20478;-68
2022/03/28 03:19:01;;;;;;;28.02;10.73;;;;;;;;;;4997441;28;20029;-69
2022/03/28 03:21:26;;;;;;;23.55;9.02;;;;;;;;;;5003519;28;20459;-69
2022/03/28 03:23:51;;;;;;;21.67;10.30;;;;;;;;;;4997613;28;20028;-68
2022/03/28 03:26:16;;;;;;;25.73;10.68;;;;;;;;;;5002336;28;20026;-68
2022/03/28 03:28:41;;;;;;;22.83;10.23;;;;;;;;;;4995428;28;20034;-68
2022/03/28 03:31:07;;;;;;;23.88;9.88;;;;;;;;;;5000485;28;20603;-68
2022/03/28 03:33:32;;;;;;;33.03;10.80;;;;;;;;;;4998769;28;20022;-69
2022/03/28 03:36:00;;;;;;;24.52;10.38;;;;;;;;;;5000286;28;20033;-69
2022/03/28 03:38:25;;;;;;;25.77;10.68;;;;;;;;;;4991475;28;20026;-68
2022/03/28 03:40:50;;;;;;;20.08;9.15;;;;;;;;;;4984668;28;20533;-68
2022/03/28 03:43:15;;;;;;;27.45;10.38;;;;;;;;;;4998302;28;20029;-68
2022/03/28 03:45:41;;;;;;;27.67;11.25;;;;;;;;;;4992018;28;20525;-68
2022/03/28 03:48:06;;;;;;;24.08;10.27;;;;;;;;;;5003938;28;20043;-68
2022/03/28 03:50:31;;;;;;;25.35;10.82;;;;;;;;;;5002106;28;20490;-69
2022/03/28 03:52:56;;;;;;;23.48;10.10;;;;;;;;;;5001619;28;20025;-69
2022/03/28 03:55:21;;;;;;;23.58;10.32;;;;;;;;;;4996188;28;20045;-69
2022/03/28 03:57:47;;;;;;;28.33;11.63;;;;;;;;;;4994511;28;20370;-69
2022/03/28 04:00:12;;;;;;;29.35;12.05;;;;;;;;;;5000537;28;20273;-67
2022/03/28 04:02:38;;;;;;;26.60;11.65;;;;;;;;;;4998284;28;20030;-68
2022/03/28 04:05:03;;;;;;;34.25;11.05;;;;;;;;;;4980981;28;20018;-69
2022/03/28 04:07:29;;;;;;;24.52;9.68;;;;;;;;;;4997708;28;20019;-68
2022/03/28 04:09:54;;;;;;;28.42;11.02;;;;;;;;;;5000372;28;20477;-69
2022/03/28 04:12:19;;;;;;;27.90;11.15;;;;;;;;;;4994887;28;20026;-69
2022/03/28 04:14:44;;;;;;;22.65;9.52;;;;;;;;;;4999601;28;20034;-68
2022/03/28 04:17:09;;;;;;;25.33;10.50;;;;;;;;;;4999064;28;20499;-68
2022/03/28 04:19:34;;;;;;;26.08;11.80;;;;;;;;;;4998759;28;20281;-68
2022/03/28 04:22:00;;;;;;;27.15;10.30;;;;;;;;;;4981900;28;20026;-68
2022/03/28 04:24:25;;;;;;;24.63;10.25;;;;;;;;;;4997174;28;20022;-69
2022/03/28 04:26:50;;;;;;;27.08;10.88;;;;;;;;;;5000428;28;20018;-68
2022/03/28 04:29:16;;;;;;;30.33;11.88;;;;;;;;;;4994439;28;20038;-68
2022/03/28 04:31:41;;;;;;;21.50;10.30;;;;;;;;;;4998181;28;20022;-70
2022/03/28 04:34:07;;;;;;;27.20;10.55;;;;;;;;;;4998768;28;20057;-69
2022/03/28 04:36:32;;;;;;;30.08;11.40;;;;;;;;;;4996471;28;20018;-68
2022/03/28 04:38:57;;;;;;;26.80;10.73;;;;;;;;;;4998655;28;20072;-69
2022/03/28 04:41:23;;;;;;;24.17;10.37;;;;;;;;;;4996623;28;20403;-69
2022/03/28 04:43:48;;;;;;;28.17;11.33;;;;;;;;;;4998634;28;20331;-69
2022/03/28 04:46:13;;;;;;;27.35;11.02;;;;;;;;;;4997763;28;20272;-69
2022/03/28 04:48:38;;;;;;;28.40;11.10;;;;;;;;;;4997192;28;20356;-69
2022/03/28 04:51:04;;;;;;;25.40;11.05;;;;;;;;;;4980259;28;20037;-69
2022/03/28 04:53:29;;;;;;;28.15;10.90;;;;;;;;;;4996767;28;20109;-69
2022/03/28 04:55:54;;;;;;;28.40;11.23;;;;;;;;;;4996486;28;20026;-69
2022/03/28 04:58:20;;;;;;;27.83;10.43;;;;;;;;;;4993981;28;20014;-68
2022/03/28 05:00:45;;;;;;;29.48;11.98;;;;;;;;;;4991544;28;20018;-69
2022/03/28 05:03:10;;;;;;;28.77;12.82;;;;;;;;;;4997903;28;20030;-69
2022/03/28 05:05:35;;;;;;;24.52;10.18;;;;;;;;;;4998039;28;20025;-70
2022/03/28 05:08:01;;;;;;;28.98;10.77;;;;;;;;;;4995716;28;20022;-68
2022/03/28 05:10:26;;;;;;;28.63;11.60;;;;;;;;;;4995370;28;20018;-69
2022/03/28 05:12:51;;;;;;;29.40;12.07;;;;;;;;;;4999697;28;20045;-69
2022/03/28 05:15:16;;;;;;;29.65;11.07;;;;;;;;;;4985212;28;20022;-69
2022/03/28 05:17:42;;;;;;;30.83;12.45;;;;;;;;;;4989692;28;20482;-69
2022/03/28 05:20:09;;;;;;;28.25;11.05;;;;;;;;;;4989418;28;20156;-69
2022/03/28 05:22:34;;;;;;;34.45;11.98;;;;;;;;;;4990446;28;20026;-69
2022/03/28 05:24:59;;;;;;;32.25;11.40;;;;;;;;;;4993450;28;20457;-69
2022/03/28 05:27:25;;;;;;;26.38;11.50;;;;;;;;;;4994700;28;20511;-69
2022/03/28 05:29:50;;;;;;;27.95;10.88;;;;;;;;;;4982799;28;20018;-69
2022/03/28 05:32:16;;;;;;;31.15;11.10;;;;;;;;;;4990073;28;20425;-70
2022/03/28 05:34:41;;;;;;;28.02;11.82;;;;;;;;;;4993046;28;20553;-69
2022/03/28 05:37:09;;;;;;;36.80;11.75;;;;;;;;;;4996018;28;20053;-69
2022/03/28 05:39:35;;;;;;;31.05;11.52;;;;;;;;;;4975277;28;20026;-69
2022/03/28 05:42:00;;;;;;;28.00;10.63;;;;;;;;;;4993646;28;20041;-69
2022/03/28 05:44:25;;;;;;;27.13;11.25;;;;;;;;;;4997334;28;20045;-70
2022/03/28 05:46:51;;;;;;;38.90;12.27;;;;;;;;;;4996452;28;20024;-69
2022/03/28 05:49:16;;;;;;;27.70;12.32;;;;;;;;;;4977058;28;20026;-68
2022/03/28 05:51:42;;;;;;;27.52;12.00;;;;;;;;;;4995805;28;20018;-69
2022/03/28 05:54:07;;;;;;;25.33;11.60;;;;;;;;;;4993237;28;20025;-70
2022/03/28 05:56:32;;;;;;;26.27;11.07;;;;;;;;;;4996043;28;20049;-69
2022/03/28 05:58:57;;;;;;;23.98;10.63;;;;;;;;;;4995121;28;20022;-70
2022/03/28 06:01:23;;;;;;;32.33;12.15;;;;;;;;;;4993382;28;20418;-69
2022/03/28 06:03:48;;;;;;;28.25;11.68;;;;;;;;;;4994346;28;20019;-69
2022/03/28 06:06:13;;;;;;;34.65;12.00;;;;;;;;;;4987724;28;20386;-69
2022/03/28 06:08:38;;;;;;;30.17;10.88;;;;;;;;;;4991899;28;20025;-68
2022/03/28 06:11:04;;;;;;;37.78;12.52;;;;;;;;;;4993952;28;20018;-71
2022/03/28 06:13:29;;;;;;;28.10;12.40;;;;;;;;;;4993809;28;20026;-69
2022/03/28 06:15:55;;;;;;;26.13;12.00;;;;;;;;;;4991237;28;20472;-69
2022/03/28 06:18:20;;;;;;;31.05;12.52;;;;;;;;;;4988244;28;20018;-71
2022/03/28 06:20:45;;;;;;;33.83;12.38;;;;;;;;;;4993021;28;20022;-69
2022/03/28 06:23:12;;;;;;;31.83;12.05;;;;;;;;;;4999004;28;20034;-69
2022/03/28 06:25:37;;;;;;;27.40;11.43;;;;;;;;;;4999286;28;20015;-69
2022/03/28 06:28:02;;;;;;;25.73;11.55;;;;;;;;;;5006117;28;20097;-69
2022/03/28 06:30:27;;;;;;;26.42;11.45;;;;;;;;;;4997996;28;20103;-69
2022/03/28 06:32:53;;;;;;;33.90;12.10;;;;;;;;;;5000810;28;20030;-69
2022/03/28 06:35:18;;;;;;;30.10;12.55;;;;;;;;;;5000021;28;20102;-69
2022/03/28 06:37:43;;;;;;;25.80;11.93;;;;;;;;;;4998581;28;20037;-70
2022/03/28 06:40:09;;;;;;;30.30;11.38;;;;;;;;;;4994768;28;20022;-69
2022/03/28 06:42:34;;;;;;;25.38;11.23;;;;;;;;;;4991419;28;20018;-70
2022/03/28 06:44:59;;;;;;;28.88;12.30;;;;;;;;;;4996682;28;20511;-69
2022/03/28 06:47:25;;;;;;;25.17;11.45;;;;;;;;;;4998728;28;20081;-69
2022/03/28 06:49:50;;;;;;;29.92;12.02;;;;;;;;;;4998547;28;20086;-69
2022/03/28 06:52:15;;;;;;;25.23;11.45;;;;;;;;;;4995430;28;20434;-69
2022/03/28 06:54:41;;;;;;;21.10;10.93;;;;;;;;;;5000180;28;20026;-69
2022/03/28 06:57:06;;;;;;;22.30;10.68;;;;;;;;;;5001200;28;20471;-69
2022/03/28 06:59:31;;;;;;;21.70;10.73;;;;;;;;;;4997590;28;20018;-70
2022/03/28 07:01:57;;;;;;;25.08;12.35;;;;;;;;;;5000457;28;20175;-69
2022/03/28 07:04:22;;;;;;;23.00;11.60;;;;;;;;;;4998702;28;20018;-69
2022/03/28 07:06:48;;;;;;;30.75;12.10;;;;;;;;;;4997601;28;20104;-69
2022/03/28 07:09:13;;;;;;;22.27;11.80;;;;;;;;;;4990989;28;20023;-69
2022/03/28 07:11:38;;;;;;;21.27;11.75;;;;;;;;;;4998207;28;20022;-69
2022/03/28 07:14:03;;;;;;;23.42;12.07;;;;;;;;;;5003165;28;20026;-69
2022/03/28 07:16:29;;;;;;;25.90;12.90;;;;;;;;;;5000134;28;20018;-69
2022/03/28 07:18:54;;;;;;;30.53;13.50;;;;;;;;;;4996322;28;20026;-69
2022/03/28 07:21:19;;;;;;;25.57;12.73;;;;;;;;;;5004344;28;20277;-69
2022/03/28 07:23:44;;;;;;;27.23;13.15;;;;;;;;;;4983421;28;20847;-70
2022/03/28 07:26:10;;;;;;;24.92;12.50;;;;;;;;;;5001409;28;20098;-69
2022/03/28 07:28:39;;;;;;;32.40;13.40;;;;;;;;;;5000867;28;20109;-69
2022/03/28 07:31:05;;;;;;;27.00;12.50;;;;;;;;;;4998556;28;20077;-69
2022/03/28 07:33:30;;;;;;;23.30;12.27;;;;;;;;;;5004802;28;20490;-69
2022/03/28 07:35:55;;;;;;;24.88;13.30;;;;;;;;;;4978513;28;20121;-69
2022/03/28 07:38:20;;;;;;;24.23;12.73;;;;;;;;;;4988626;28;20022;-67
2022/03/28 07:40:46;;;;;;;24.30;12.63;;;;;;;;;;4994773;28;20434;-66
2022/03/28 07:43:12;;;;;;;22.27;12.05;;;;;;;;;;4997302;28;20463;-70
2022/03/28 07:45:37;;;;;;;19.95;13.20;;;;;;;;;;4995803;28;20018;-69
2022/03/28 07:48:03;;;;;;;18.20;11.90;;;;;;;;;;4996192;28;20097;-69
2022/03/28 07:50:29;;;;;;;18.55;9.85;;;;;;;;;;4986543;28;20018;-67
2022/03/28 07:52:55;;;;;;;21.50;12.52;;;;;;;;;;4995056;28;20093;-67
2022/03/28 07:55:20;;;;;;;18.10;11.30;;;;;;;;;;4994679;28;20026;-68
2022/03/28 07:57:45;;;;;;;21.08;12.88;;;;;;;;;;4992834;28;20026;-67
2022/03/28 08:00:13;;;;;;;20.00;12.50;;;;;;;;;;4991069;28;20125;-68
2022/03/28 08:02:38;;;;;;;24.85;12.75;;;;;;;;;;4992769;28;20030;-69
2022/03/28 08:05:05;;;;;;;27.98;12.77;;;;;;;;;;4992477;28;20018;-69
2022/03/28 08:07:30;;;;;;;20.40;11.25;;;;;;;;;;4992306;28;20033;-68
2022/03/28 08:09:55;;;;;;;25.83;13.48;;;;;;;;;;4992497;28;20034;-67
2022/03/28 08:12:20;;;;;;;26.40;13.90;;;;;;;;;;4991949;28;20011;-67
2022/03/28 08:14:46;;;;;;;28.73;12.93;;;;;;;;;;4992103;28;20201;-68
2022/03/28 08:17:11;;;;;;;22.90;14.38;;;;;;;;;;4987901;28;20265;-68
2022/03/28 08:19:36;;;;;;;24.63;14.02;;;;;;;;;;4991682;28;20416;-68
2022/03/28 08:22:02;;;;;;;21.70;14.47;;;;;;;;;;4991125;28;20340;-69
2022/03/28 08:24:27;;;;;;;22.50;14.48;;;;;;;;;;4991758;28;20355;-69
2022/03/28 08:26:52;;;;;;;22.83;12.15;;;;;;;;;;4992289;28;20105;-69
2022/03/28 08:29:18;;;;;;;26.00;14.33;;;;;;;;;;4990301;28;20101;-69
2022/03/28 08:31:43;;;;;;;21.42;14.00;;;;;;;;;;4997084;28;20269;-69
2022/03/28 08:34:08;;;;;;;23.30;14.20;;;;;;;;;;4993781;28;20033;-69
2022/03/28 08:36:34;;;;;;;32.42;16.45;;;;;;;;;;4997811;28;20463;-69
2022/03/28 08:38:59;;;;;;;26.33;15.23;;;;;;;;;;4993916;28;20086;-69
2022/03/28 08:41:26;;;;;;;25.48;15.25;;;;;;;;;;4992708;28;20029;-68
2022/03/28 08:43:51;;;;;;;25.70;17.65;;;;;;;;;;4997108;28;20057;-70
2022/03/28 08:46:16;;;;;;;25.07;15.73;;;;;;;;;;4995788;28;20054;-69
2022/03/28 08:48:42;;;;;;;23.88;16.17;;;;;;;;;;4995267;28;20357;-69
2022/03/28 08:51:08;;;;;;;25.10;15.07;;;;;;;;;;4998700;28;20077;-68
2022/03/28 08:53:33;;;;;;;22.88;15.77;;;;;;;;;;5000988;28;20015;-68
2022/03/28 08:55:58;;;;;;;24.83;15.88;;;;;;;;;;4999993;28;20072;-68
2022/03/28 08:58:24;;;;;;;24.25;16.35;;;;;;;;;;5002215;28;20521;-69
2022/03/28 09:00:49;;;;;;;24.25;14.93;;;;;;;;;;4996738;28;20383;-68
2022/03/28 09:03:14;;;;;;;26.58;17.33;;;;;;;;;;4994828;28;20109;-69
2022/03/28 09:05:40;;;;;;;29.50;17.38;;;;;;;;;;4982436;28;20010;-67
2022/03/28 09:08:07;;;;;;;23.50;13.50;;;;;;;;;;4995157;28;20097;-68
2022/03/28 09:10:33;;;;;;;29.63;16.00;;;;;;;;;;4992337;28;20025;-68
2022/03/28 09:13:06;;;;;;;27.90;15.65;;;;;;;;;;4999141;28;20026;-68
2022/03/28 09:15:41;;;;;;;27.63;16.35;;;;;;;;;;4992103;28;20030;-68
2022/03/28 09:18:07;;;;;;;35.63;17.15;;;;;;;;;;5003741;28;20072;-68
2022/03/28 09:20:35;;;;;;;32.83;18.35;;;;;;;;;;4994817;28;20022;-68
2022/03/28 09:23:21;;;;;;;34.50;19.35;;;;;;;;;;4996550;28;20120;-68
2022/03/28 09:25:50;;;;;;;40.22;19.83;;;;;;;;;;4997870;28;20017;-68
2022/03/28 09:28:15;;;;;;;36.70;18.88;;;;;;;;;;4992607;28;20018;-67
2022/03/28 09:30:40;;;;;;;32.73;18.40;;;;;;;;;;4997705;28;20010;-68
2022/03/28 09:33:06;;;;;;;37.03;18.37;;;;;;;;;;5000398;28;20275;-67
2022/03/28 09:35:31;;;;;;;33.33;15.32;;;;;;;;;;4998055;28;20052;-68
2022/03/28 09:37:58;;;;;;;34.40;17.70;;;;;;;;;;4994717;28;20065;-67
2022/03/28 09:40:23;;;;;;;40.90;18.88;;;;;;;;;;4993159;28;20026;-67
2022/03/28 09:42:48;;;;;;;44.88;21.67;;;;;;;;;;4996392;28;20498;-67
2022/03/28 09:45:21;;;;;;;37.08;20.92;;;;;;;;;;4996776;28;20041;-68
2022/03/28 09:47:56;;;;;;;37.00;20.02;;;;;;;;;;4996076;28;20079;-67
2022/03/28 09:50:50;;;;;;;39.28;20.27;;;;;;;;;;4994068;28;20017;-68
2022/03/28 09:53:17;;;;;;;46.38;21.92;;;;;;;;;;4971010;28;20124;-67
2022/03/28 09:55:50;;;;;;;40.58;22.02;;;;;;;;;;4994801;28;20034;-67
2022/03/28 09:58:35;;;;;;;44.00;23.35;;;;;;;;;;4989984;28;20091;-67
2022/03/28 10:01:00;;;;;;;41.45;21.02;;;;;;;;;;4992246;28;20088;-69
2022/03/28 10:03:27;;;;;;;38.28;20.50;;;;;;;;;;4996444;28;20375;-68
2022/03/28 10:05:54;;;;;;;46.10;21.38;;;;;;;;;;4990778;28;20069;-68
2022/03/28 10:08:19;;;;;;;36.38;20.40;;;;;;;;;;4989588;28;20010;-67
2022/03/28 10:10:44;;;;;;;43.47;19.77;;;;;;;;;;4994580;28;20372;-67
2022/03/28 10:13:10;;;;;;;36.22;19.67;;;;;;;;;;4993988;28;20023;-68
2022/03/28 10:15:36;;;;;;;39.53;19.50;;;;;;;;;;4996746;28;20030;-67
2022/03/28 10:18:01;;;;;;;39.90;20.15;;;;;;;;;;4995036;28;20022;-68
2022/03/28 10:20:27;;;;;;;38.83;20.00;;;;;;;;;;5001001;28;20105;-68
2022/03/28 10:22:53;;;;;;;38.37;21.50;;;;;;;;;;4994814;28;20479;-67
2022/03/28 10:25:21;;;;;;;39.15;21.02;;;;;;;;;;4996612;28;20273;-67
2022/03/28 10:30:16;;;;;;;32.78;19.95;;;;;;;;;;5054871;22;20332;-70
2022/03/28 10:32:41;;;;;;;40.45;21.35;;;;;;;;;;5025939;28;20025;-70
2022/03/28 10:35:07;;;;;;;40.00;20.83;;;;;;;;;;5043218;28;20025;-70
2022/03/28 10:37:34;;;;;;;35.88;19.20;;;;;;;;;;5035921;28;20252;-70
2022/03/28 10:40:12;;;;;;;36.30;19.15;;;;;;;;;;5042826;28;20092;-70
2022/03/28 10:42:37;;;;;;;40.20;21.60;;;;;;;;;;5016225;28;20038;-70
2022/03/28 10:45:04;;;;;;;37.72;19.33;;;;;;;;;;5040785;28;20068;-70
2022/03/28 10:47:39;;;;;;;33.00;18.63;;;;;;;;;;5029509;28;20021;-70
2022/03/28 10:50:05;;;;;;;45.97;20.83;;;;;;;;;;5024168;28;20044;-70
2022/03/28 10:52:30;;;;;;;36.20;19.58;;;;;;;;;;5034207;28;20465;-69
2022/03/28 10:54:55;;;;;;;36.63;18.63;;;;;;;;;;5037142;28;20494;-69
2022/03/28 10:57:24;;;;;;;38.70;17.37;;;;;;;;;;5032178;28;20291;-69
2022/03/28 11:00:08;;;;;;;34.13;17.77;;;;;;;;;;5020404;28;20286;-69
2022/03/28 11:02:33;;;;;;;29.40;16.80;;;;;;;;;;5036542;28;20021;-69
2022/03/28 11:05:06;;;;;;;28.15;15.98;;;;;;;;;;5033648;28;20071;-70
2022/03/28 11:07:31;;;;;;;39.67;21.42;;;;;;;;;;5035510;28;20028;-70
2022/03/28 11:10:04;;;;;;;36.85;21.63;;;;;;;;;;5021102;28;20100;-69
2022/03/28 11:12:37;;;;;;;47.40;22.05;;;;;;;;;;5035270;28;20017;-70
2022/03/28 11:15:16;;;;;;;43.83;21.92;;;;;;;;;;5041975;28;20026;-69
2022/03/28 11:18:09;;;;;;;43.00;20.65;;;;;;;;;;5038200;28;20436;-70
2022/03/28 11:20:45;;;;;;;39.20;21.08;;;;;;;;;;5036504;28;20032;-69
2022/03/28 11:23:11;;;;;;;42.08;21.17;;;;;;;;;;5040984;28;20020;-70
2022/03/28 11:25:44;;;;;;;36.45;20.90;;;;;;;;;;5039104;28;20374;-70
2022/03/28 11:28:12;;;;;;;48.55;22.40;;;;;;;;;;5041670;28;20017;-69
2022/03/28 11:30:39;;;;;;;41.88;21.10;;;;;;;;;;5037619;28;20014;-69
2022/03/28 11:33:08;;;;;;;32.35;18.50;;;;;;;;;;5041003;28;20377;-73
2022/03/28 11:35:34;;;;;;;47.65;22.08;;;;;;;;;;5037197;28;20485;-70
2022/03/28 11:37:59;;;;;;;41.33;23.05;;;;;;;;;;5036712;28;20071;-70
2022/03/28 11:40:35;;;;;;;39.60;20.60;;;;;;;;;;5038782;28;20056;-70
2022/03/28 11:43:00;;;;;;;42.05;22.52;;;;;;;;;;5039694;28;20432;-71
2022/03/28 11:45:26;;;;;;;48.53;23.47;;;;;;;;;;5019841;28;20025;-70
2022/03/28 11:47:52;;;;;;;38.78;19.80;;;;;;;;;;5042843;28;20044;-70
2022/03/28 11:50:17;;;;;;;39.13;20.83;;;;;;;;;;5032663;28;20100;-70
2022/03/28 11:52:47;;;;;;;40.50;21.53;;;;;;;;;;5030938;28;20129;-70
2022/03/28 11:55:24;;;;;;;38.72;21.55;;;;;;;;;;5032935;28;20279;-70
2022/03/28 12:00:34;;;;;;;36.65;19.15;;;;;;;;;;5031546;28;20095;-70
2022/03/28 12:03:00;;;;;;;35.08;18.70;;;;;;;;;;5038805;28;20466;-71
2022/03/28 12:05:25;;;;;;;43.28;18.38;;;;;;;;;;5034101;28;20466;-70
2022/03/28 12:07:50;;;;;;;39.77;17.83;;;;;;;;;;5038839;28;20056;-70
2022/03/28 12:10:16;;;;;;;39.13;18.67;;;;;;;;;;5037200;28;20435;-71
2022/03/28 12:12:41;;;;;;;40.35;21.25;;;;;;;;;;5040567;28;20028;-70
2022/03/28 12:15:09;;;;;;;41.88;20.35;;;;;;;;;;5043946;28;20029;-71
2022/03/28 12:17:34;;;;;;;32.20;16.98;;;;;;;;;;5038124;28;20059;-71
2022/03/28 12:20:04;;;;;;;35.73;16.33;;;;;;;;;;5045511;28;20419;-69
2022/03/28 12:22:29;;;;;;;35.67;15.30;;;;;;;;;;5038118;28;20304;-68
2022/03/28 12:24:56;;;;;;;31.93;16.30;;;;;;;;;;5031756;28;20072;-69
2022/03/28 12:27:23;;;;;;;31.88;17.80;;;;;;;;;;5038666;28;20696;-69
2022/03/28 12:29:51;;;;;;;31.92;17.25;;;;;;;;;;5039121;28;20028;-70
2022/03/28 12:32:17;;;;;;;32.88;15.40;;;;;;;;;;5035861;28;20079;-71
2022/03/28 12:34:42;;;;;;;35.60;15.97;;;;;;;;;;5033054;28;20030;-71
2022/03/28 12:37:07;;;;;;;35.58;15.75;;;;;;;;;;5037810;28;20174;-70
2022/03/28 12:39:33;;;;;;;35.78;16.67;;;;;;;;;;5034167;28;20018;-70
2022/03/28 12:42:00;;;;;;;26.73;13.70;;;;;;;;;;5036894;28;20032;-70
2022/03/28 12:44:28;;;;;;;32.67;15.10;;;;;;;;;;5019448;28;20029;-69
2022/03/28 12:47:03;;;;;;;33.72;16.75;;;;;;;;;;5033550;28;20025;-70
2022/03/28 12:49:39;;;;;;;29.98;17.10;;;;;;;;;;5035331;28;20021;-70
2022/03/28 12:52:08;;;;;;;36.83;16.70;;;;;;;;;;5036449;28;20013;-70
2022/03/28 12:54:34;;;;;;;40.60;18.02;;;;;;;;;;5038352;28;20469;-70
2022/03/28 12:56:59;;;;;;;30.23;14.68;;;;;;;;;;5037637;28;20028;-70
2022/03/28 12:59:31;;;;;;;34.65;15.25;;;;;;;;;;5037896;28;20017;-70
2022/03/28 13:02:08;;;;;;;34.70;15.45;;;;;;;;;;5037282;28;20025;-70
2022/03/28 13:04:46;;;;;;;30.50;17.38;;;;;;;;;;5041001;28;20437;-70
2022/03/28 13:07:17;;;;;;;34.83;16.17;;;;;;;;;;5036928;28;20048;-70
2022/03/28 13:09:52;;;;;;;29.40;14.88;;;;;;;;;;5041371;28;20025;-70
2022/03/28 13:12:18;;;;;;;31.70;14.35;;;;;;;;;;5030573;28;20022;-70
2022/03/28 13:14:48;;;;;;;28.02;14.75;;;;;;;;;;5037132;28;20033;-70
2022/03/28 13:17:14;;;;;;;35.40;15.88;;;;;;;;;;5032140;28;20052;-70
2022/03/28 13:19:53;;;;;;;30.60;15.57;;;;;;;;;;5034435;28;20437;-70
2022/03/28 13:22:24;;;;;;;36.28;15.85;;;;;;;;;;5034145;28;20051;-70
2022/03/28 13:25:04;;;;;;;32.78;16.92;;;;;;;;;;5038885;28;20091;-70
2022/03/28 13:30:17;;;;;;;29.42;13.63;;;;;;;;;;5031089;28;20036;-70
2022/03/28 13:32:43;;;;;;;35.35;15.85;;;;;;;;;;5042784;28;20025;-70
2022/03/28 13:35:08;;;;;;;32.80;15.43;;;;;;;;;;5040133;28;20024;-70
2022/03/28 13:37:34;;;;;;;37.97;13.88;;;;;;;;;;5050613;28;20731;-70
2022/03/28 13:39:59;;;;;;;32.90;13.77;;;;;;;;;;5045732;28;20037;-71
2022/03/28 13:42:24;;;;;;;36.90;14.30;;;;;;;;;;5040075;28;20270;-71
2022/03/28 13:44:49;;;;;;;30.07;15.60;;;;;;;;;;5035695;28;20021;-71
2022/03/28 13:47:14;;;;;;;32.57;14.43;;;;;;;;;;5037607;28;20299;-71
2022/03/28 13:49:40;;;;;;;33.00;14.30;;;;;;;;;;5036376;28;20047;-71
2022/03/28 13:52:07;;;;;;;31.13;14.07;;;;;;;;;;5033087;28;20256;-72
2022/03/28 13:54:32;;;;;;;24.13;12.50;;;;;;;;;;5011452;28;20048;-71
2022/03/28 13:56:57;;;;;;;35.20;16.23;;;;;;;;;;5033453;28;20029;-72
2022/03/28 13:59:22;;;;;;;36.15;14.13;;;;;;;;;;5039373;28;20078;-69
2022/03/28 14:01:48;;;;;;;31.30;15.80;;;;;;;;;;5036253;28;20025;-72
2022/03/28 14:04:14;;;;;;;33.45;13.68;;;;;;;;;;5036915;28;20621;-71
2022/03/28 14:06:39;;;;;;;35.00;14.60;;;;;;;;;;5029526;28;20021;-70
2022/03/28 14:09:04;;;;;;;43.97;17.88;;;;;;;;;;5032915;28;20451;-71
2022/03/28 14:11:29;;;;;;;28.50;15.43;;;;;;;;;;5031687;28;20100;-71
2022/03/28 14:13:55;;;;;;;25.92;13.32;;;;;;;;;;5021075;28;20422;-71
2022/03/28 14:16:21;;;;;;;33.70;18.27;;;;;;;;;;5038808;28;20100;-70
2022/03/28 14:18:46;;;;;;;36.70;17.00;;;;;;;;;;5036679;28;20028;-70
2022/03/28 14:21:12;;;;;;;40.10;16.13;;;;;;;;;;5043430;28;20490;-70
2022/03/28 14:23:37;;;;;;;30.35;14.30;;;;;;;;;;5035814;28;20378;-70
2022/03/28 14:26:03;;;;;;;30.80;13.40;;;;;;;;;;5035683;28;20069;-70